createdAt,value
2022-09-15T00:02:20.891Z,7.33
2022-09-15T00:04:47.464Z,6.50
2022-09-15T00:07:14.176Z,6.67
2022-09-15T00:09:40.777Z,6.57
2022-09-15T00:12:07.328Z,6.40
2022-09-15T00:14:33.768Z,6.97
2022-09-15T00:17:00.280Z,7.50
2022-09-15T00:19:26.966Z,6.63
2022-09-15T00:21:53.612Z,6.17
2022-09-15T00:24:20.116Z,6.67
2022-09-15T00:26:46.627Z,6.47
2022-09-15T00:29:13.071Z,6.80
2022-09-15T00:31:39.616Z,7.00
2022-09-15T00:34:07.232Z,7.03
2022-09-15T00:36:34.111Z,6.73
2022-09-15T00:39:00.976Z,6.90
2022-09-15T00:41:28.124Z,6.90
2022-09-15T00:44:06.421Z,6.77
2022-09-15T00:46:39.881Z,6.93
2022-09-15T00:49:11.414Z,6.60
2022-09-15T00:51:54.982Z,6.40
2022-09-15T00:54:28.558Z,6.83
2022-09-15T00:56:57.080Z,6.80
2022-09-15T00:59:25.572Z,6.93
2022-09-15T01:02:11.437Z,6.97
2022-09-15T01:04:38.006Z,6.47
2022-09-15T01:07:05.871Z,7.70
2022-09-15T01:09:39.633Z,7.43
2022-09-15T01:12:06.274Z,7.43
2022-09-15T01:14:32.697Z,7.63
2022-09-15T01:17:06.850Z,7.77
2022-09-15T01:20:07.714Z,7.83
2022-09-15T01:22:56.055Z,8.00
2022-09-15T01:25:35.249Z,7.53
2022-09-15T01:28:39.039Z,7.17
2022-09-15T01:31:57.065Z,7.53
2022-09-15T01:34:24.556Z,7.33
2022-09-15T01:36:55.763Z,7.47
2022-09-15T01:39:27.067Z,8.03
2022-09-15T01:41:57.127Z,8.70
2022-09-15T01:44:28.145Z,8.27
2022-09-15T01:46:58.310Z,7.40
2022-09-15T01:49:27.029Z,8.17
2022-09-15T01:51:54.384Z,8.50
2022-09-15T01:54:28.889Z,8.43
2022-09-15T01:56:55.766Z,9.23
2022-09-15T01:59:22.318Z,8.37
2022-09-15T02:01:53.747Z,8.67
2022-09-15T02:04:27.844Z,9.47
2022-09-15T02:07:11.636Z,8.50
2022-09-15T02:10:02.144Z,8.93
2022-09-15T02:12:56.472Z,9.60
2022-09-15T02:15:51.626Z,8.63
2022-09-15T02:18:24.170Z,9.50
2022-09-15T02:20:53.689Z,9.37
2022-09-15T02:23:26.187Z,8.43
2022-09-15T02:26:06.389Z,10.23
2022-09-15T02:28:35.753Z,8.57
2022-09-15T02:31:03.633Z,9.60
2022-09-15T02:33:34.956Z,10.33
2022-09-15T02:36:02.417Z,9.77
2022-09-15T02:38:34.310Z,9.20
2022-09-15T02:41:01.229Z,9.83
2022-09-15T02:43:28.056Z,9.67
2022-09-15T02:45:55.155Z,9.83
2022-09-15T02:48:21.963Z,10.90
2022-09-15T02:50:48.391Z,9.30
2022-09-15T02:53:14.829Z,9.97
2022-09-15T02:55:41.964Z,9.73
2022-09-15T02:58:08.550Z,10.07
2022-09-15T03:00:35.018Z,10.47
2022-09-15T03:03:01.555Z,9.90
2022-09-15T03:05:29.490Z,10.47
2022-09-15T03:07:56.559Z,10.03
2022-09-15T03:10:24.471Z,9.33
2022-09-15T03:12:52.468Z,10.13
2022-09-15T03:15:21.466Z,9.90
2022-09-15T03:17:48.525Z,9.83
2022-09-15T03:20:18.607Z,10.23
2022-09-15T03:22:45.140Z,11.03
2022-09-15T03:25:11.700Z,10.80
2022-09-15T03:27:38.292Z,10.57
2022-09-15T03:30:06.270Z,9.27
2022-09-15T03:32:33.002Z,10.87
2022-09-15T03:34:59.631Z,12.20
2022-09-15T03:37:26.193Z,10.47
2022-09-15T03:39:52.698Z,11.33
2022-09-15T03:42:19.796Z,11.27
2022-09-15T03:44:46.230Z,12.00
2022-09-15T03:47:13.211Z,11.93
2022-09-15T03:49:39.682Z,11.43
2022-09-15T03:52:06.138Z,12.30
2022-09-15T03:54:32.664Z,12.37
2022-09-15T03:56:59.120Z,12.23
2022-09-15T03:59:25.545Z,12.87
2022-09-15T04:01:52.282Z,11.40
2022-09-15T04:04:18.775Z,13.17
2022-09-15T04:06:45.240Z,13.10
2022-09-15T04:09:11.779Z,13.80
2022-09-15T04:11:39.452Z,13.27
2022-09-15T04:14:05.892Z,13.83
2022-09-15T04:16:32.563Z,14.00
2022-09-15T04:18:59.338Z,15.23
2022-09-15T04:21:26.757Z,14.33
2022-09-15T04:23:54.015Z,15.20
2022-09-15T04:26:30.035Z,14.83
2022-09-15T04:29:00.510Z,15.13
2022-09-15T04:31:29.841Z,15.07
2022-09-15T04:33:57.207Z,13.33
2022-09-15T04:36:25.850Z,15.03
2022-09-15T04:38:52.834Z,13.93
2022-09-15T04:41:19.829Z,14.17
2022-09-15T04:43:46.913Z,14.97
2022-09-15T04:46:14.223Z,14.03
2022-09-15T04:48:41.433Z,13.83
2022-09-15T04:51:11.542Z,13.30
2022-09-15T04:53:38.337Z,18.30
2022-09-15T04:56:06.538Z,15.97
2022-09-15T04:58:44.067Z,13.87
2022-09-15T05:01:13.354Z,13.57
2022-09-15T05:03:40.502Z,13.63
2022-09-15T05:06:09.088Z,13.13
2022-09-15T05:08:35.690Z,14.33
2022-09-15T05:11:04.618Z,14.30
2022-09-15T05:13:32.108Z,13.10
2022-09-15T05:16:04.966Z,13.10
2022-09-15T05:18:33.229Z,13.63
2022-09-15T05:21:00.925Z,15.00
2022-09-15T05:23:27.874Z,14.73
2022-09-15T05:25:58.730Z,12.63
2022-09-15T05:28:25.181Z,12.60
2022-09-15T05:30:52.776Z,13.77
2022-09-15T05:33:20.315Z,13.67
2022-09-15T05:35:51.707Z,12.87
2022-09-15T05:38:18.212Z,12.93
2022-09-15T05:40:44.910Z,11.97
2022-09-15T05:43:11.349Z,12.00
2022-09-15T05:45:37.853Z,12.67
2022-09-15T05:48:04.681Z,10.77
2022-09-15T05:50:32.036Z,9.93
2022-09-15T05:52:58.595Z,10.97
2022-09-15T05:55:25.116Z,9.60
2022-09-15T05:57:51.647Z,9.10
2022-09-15T06:00:19.025Z,9.60
2022-09-15T06:02:45.660Z,8.40
2022-09-15T06:05:12.154Z,8.67
2022-09-15T06:07:39.039Z,9.13
2022-09-15T06:10:06.080Z,8.00
2022-09-15T06:12:33.063Z,7.50
2022-09-15T06:14:59.867Z,7.60
2022-09-15T06:17:26.478Z,6.90
2022-09-15T06:19:53.247Z,6.43
2022-09-15T06:22:19.908Z,6.57
2022-09-15T06:24:46.440Z,6.40
2022-09-15T06:27:12.932Z,6.27
2022-09-15T06:29:39.337Z,5.67
2022-09-15T06:32:06.154Z,6.70
2022-09-15T06:34:33.084Z,5.67
2022-09-15T06:36:59.989Z,5.30
2022-09-15T06:39:27.048Z,5.50
2022-09-15T06:42:02.371Z,5.40
2022-09-15T06:44:31.863Z,4.63
2022-09-15T06:46:58.428Z,5.27
2022-09-15T06:49:25.313Z,4.67
2022-09-15T06:51:51.916Z,4.03
2022-09-15T06:54:18.514Z,4.40
2022-09-15T06:56:45.115Z,4.93
2022-09-15T06:59:12.759Z,4.80
2022-09-15T07:01:39.615Z,4.90
2022-09-15T07:04:08.493Z,4.20
2022-09-15T07:06:35.187Z,4.03
2022-09-15T07:09:02.700Z,4.10
2022-09-15T07:11:29.864Z,4.07
2022-09-15T07:13:57.061Z,4.03
2022-09-15T07:16:25.881Z,3.67
2022-09-15T07:18:55.195Z,3.30
2022-09-15T07:21:21.794Z,3.43
2022-09-15T07:23:49.249Z,3.40
2022-09-15T07:26:18.539Z,3.10
2022-09-15T07:28:49.944Z,2.97
2022-09-15T07:31:18.777Z,3.63
2022-09-15T07:33:48.230Z,3.13
2022-09-15T07:36:18.033Z,3.23
2022-09-15T07:38:46.676Z,3.07
2022-09-15T07:41:16.084Z,3.10
2022-09-15T07:43:49.716Z,3.33
2022-09-15T07:46:17.680Z,2.63
2022-09-15T07:48:49.092Z,2.70
2022-09-15T07:51:16.760Z,2.50
2022-09-15T07:53:44.594Z,2.83
2022-09-15T07:56:11.521Z,2.53
2022-09-15T07:58:37.979Z,2.23
2022-09-15T08:01:07.281Z,2.63
2022-09-15T08:03:34.105Z,2.27
2022-09-15T08:06:01.703Z,2.37
2022-09-15T08:08:28.928Z,2.13
2022-09-15T08:10:55.817Z,1.97
2022-09-15T08:13:22.559Z,2.03
2022-09-15T08:15:49.280Z,2.53
2022-09-15T08:18:16.252Z,1.90
2022-09-15T08:20:43.819Z,1.73
2022-09-15T08:23:11.238Z,1.80
2022-09-15T08:25:40.618Z,1.77
2022-09-15T08:28:07.126Z,1.63
2022-09-15T08:30:33.655Z,2.10
2022-09-15T08:33:00.276Z,1.73
2022-09-15T08:35:26.734Z,2.40
2022-09-15T08:37:55.308Z,1.80
2022-09-15T08:40:32.378Z,2.10
2022-09-15T08:43:03.822Z,1.80
2022-09-15T08:45:40.266Z,1.93
2022-09-15T08:48:08.451Z,1.60
2022-09-15T08:50:44.803Z,1.90
2022-09-15T08:53:17.825Z,2.10
2022-09-15T08:55:48.727Z,1.80
2022-09-15T08:58:18.024Z,1.70
2022-09-15T09:00:46.059Z,1.50
2022-09-15T09:03:33.949Z,1.63
2022-09-15T09:06:10.540Z,2.00
2022-09-15T09:09:15.587Z,2.00
2022-09-15T09:11:48.305Z,1.70
2022-09-15T09:14:48.475Z,1.40
2022-09-15T09:18:08.217Z,1.50
2022-09-15T09:20:53.772Z,1.60
2022-09-15T09:23:24.025Z,1.17
2022-09-15T09:25:52.109Z,1.60
2022-09-15T09:28:32.829Z,1.70
2022-09-15T09:31:07.858Z,1.67
2022-09-15T09:33:47.359Z,1.60
2022-09-15T09:36:14.715Z,1.43
2022-09-15T09:38:44.160Z,1.77
2022-09-15T09:41:25.503Z,1.70
2022-09-15T09:43:55.759Z,1.37
2022-09-15T09:46:22.568Z,1.77
2022-09-15T09:48:54.829Z,1.73
2022-09-15T09:51:37.276Z,2.00
2022-09-15T09:54:11.827Z,1.50
2022-09-15T09:56:39.089Z,1.50
2022-09-15T09:59:05.725Z,1.60
2022-09-15T10:01:32.483Z,1.70
2022-09-15T10:04:19.284Z,1.77
2022-09-15T10:06:46.554Z,1.60
2022-09-15T10:09:18.076Z,1.43
2022-09-15T10:11:50.379Z,1.73
2022-09-15T10:14:22.208Z,1.50
2022-09-15T10:17:07.895Z,1.30
2022-09-15T10:19:55.188Z,1.47
2022-09-15T10:22:32.513Z,1.40
2022-09-15T10:25:01.039Z,1.73
2022-09-15T10:27:32.705Z,1.60
2022-09-15T10:30:12.473Z,1.70
2022-09-15T10:32:39.509Z,1.87
2022-09-15T10:35:18.609Z,1.77
2022-09-15T10:37:59.866Z,1.93
2022-09-15T10:40:33.724Z,1.70
2022-09-15T10:43:02.907Z,1.67
2022-09-15T10:45:39.905Z,1.97
2022-09-15T10:48:16.481Z,2.07
2022-09-15T10:51:02.344Z,1.57
2022-09-15T10:53:49.053Z,2.00
2022-09-15T10:56:18.303Z,1.93
2022-09-15T10:58:56.962Z,2.00
2022-09-15T11:01:29.417Z,2.23
2022-09-15T11:04:11.485Z,2.00
2022-09-15T11:06:49.175Z,1.97
2022-09-15T11:09:23.114Z,1.60
2022-09-15T11:11:55.107Z,2.00
2022-09-15T11:14:40.567Z,2.10
2022-09-15T11:17:29.133Z,1.93
2022-09-15T11:20:08.023Z,1.60
2022-09-15T11:22:39.119Z,1.97
2022-09-15T11:25:13.770Z,2.00
2022-09-15T11:27:43.932Z,1.80
2022-09-15T11:30:17.945Z,1.83
2022-09-15T11:33:05.689Z,1.60
2022-09-15T11:35:54.516Z,1.57
2022-09-15T11:38:48.338Z,1.40
2022-09-15T11:41:19.157Z,1.90
2022-09-15T11:43:58.217Z,2.00
2022-09-15T11:46:45.718Z,1.60
2022-09-15T11:49:18.103Z,1.73
2022-09-15T11:51:52.623Z,1.30
2022-09-15T11:54:45.133Z,1.77
2022-09-15T11:57:18.047Z,1.90
2022-09-15T12:00:05.166Z,1.93
2022-09-15T12:02:42.834Z,1.80
2022-09-15T12:05:24.819Z,2.20
2022-09-15T12:07:58.732Z,2.13
2022-09-15T12:10:35.539Z,1.70
2022-09-15T12:13:02.554Z,1.97
2022-09-15T12:15:29.366Z,2.00
2022-09-15T12:18:34.311Z,1.80
2022-09-15T12:21:02.033Z,1.53
2022-09-15T12:23:42.170Z,1.80
2022-09-15T12:26:16.110Z,1.77
2022-09-15T12:29:22.574Z,1.80
2022-09-15T12:31:49.037Z,1.90
2022-09-15T12:35:01.166Z,2.00
2022-09-15T12:37:47.268Z,1.93
2022-09-15T12:40:39.081Z,1.80
2022-09-15T12:43:12.633Z,1.47
2022-09-15T12:45:41.155Z,1.83
2022-09-15T12:48:16.611Z,2.00
2022-09-15T12:50:44.268Z,1.50
2022-09-15T12:53:29.081Z,1.70
2022-09-15T12:56:07.000Z,1.67
2022-09-15T12:58:36.727Z,1.60
2022-09-15T13:01:19.120Z,1.87
2022-09-15T13:03:45.892Z,1.63
2022-09-15T13:06:31.182Z,1.73
2022-09-15T13:09:06.436Z,1.90
2022-09-15T13:14:16.679Z,1.70
2022-09-15T13:17:04.088Z,1.60
2022-09-15T13:19:33.222Z,1.67
2022-09-15T13:22:36.296Z,1.90
2022-09-15T13:25:13.888Z,1.70
2022-09-15T13:27:50.472Z,2.40
2022-09-15T13:30:41.196Z,1.70
2022-09-15T13:39:53.803Z,2.00
2022-09-15T13:42:44.880Z,1.80
2022-09-15T13:45:29.517Z,2.53
2022-09-15T13:47:58.720Z,1.70
2022-09-15T13:50:49.093Z,1.80
2022-09-15T13:53:24.267Z,1.97
2022-09-15T13:55:51.818Z,2.13
2022-09-15T14:01:12.443Z,1.87
2022-09-15T14:03:38.864Z,1.67
2022-09-15T14:06:35.574Z,1.60
2022-09-15T14:09:08.589Z,1.77
2022-09-15T14:11:36.587Z,1.80
2022-09-15T14:14:04.352Z,2.03
2022-09-15T14:16:36.177Z,2.00
2022-09-15T14:19:24.532Z,2.07
2022-09-15T14:21:53.764Z,2.00
2022-09-15T14:24:30.098Z,1.87
2022-09-15T14:27:03.347Z,1.77
2022-09-15T14:29:30.068Z,2.00
2022-09-15T14:32:00.766Z,1.90
2022-09-15T14:34:31.158Z,1.97
2022-09-15T14:37:12.947Z,1.90
2022-09-15T14:39:40.460Z,1.73
2022-09-15T14:42:30.949Z,2.30
2022-09-15T14:48:16.621Z,2.07
2022-09-15T14:50:44.636Z,1.90
2022-09-15T14:53:18.894Z,1.60
2022-09-15T14:55:56.795Z,2.67
2022-09-15T14:58:24.459Z,2.20
2022-09-15T15:00:59.386Z,1.33
2022-09-15T15:03:28.503Z,1.80
2022-09-15T15:06:12.756Z,2.10
2022-09-15T15:09:00.355Z,1.90
2022-09-15T15:11:28.013Z,1.73
2022-09-15T15:13:55.125Z,1.93
2022-09-15T15:16:29.944Z,2.00
2022-09-15T15:18:57.252Z,1.90
2022-09-15T15:21:38.696Z,2.07
2022-09-15T15:24:13.697Z,2.17
2022-09-15T15:26:42.397Z,1.93
2022-09-15T15:29:45.507Z,2.17
2022-09-15T15:32:21.233Z,2.50
2022-09-15T15:34:54.547Z,2.20
2022-09-15T15:37:27.907Z,2.40
2022-09-15T15:39:56.299Z,2.40
2022-09-15T15:42:24.057Z,2.07
2022-09-15T15:45:16.556Z,2.10
2022-09-15T15:47:43.032Z,2.10
2022-09-15T15:50:13.686Z,2.40
2022-09-15T15:52:41.789Z,2.63
2022-09-15T15:55:08.530Z,2.20
2022-09-15T15:57:38.185Z,1.97
2022-09-15T16:00:16.557Z,2.43
2022-09-15T16:02:46.429Z,1.90
2022-09-15T16:05:13.647Z,1.97
2022-09-15T16:07:40.691Z,2.20
2022-09-15T16:10:08.516Z,2.00
2022-09-15T16:12:35.589Z,1.90
2022-09-15T16:15:02.935Z,2.13
2022-09-15T16:17:29.532Z,1.83
2022-09-15T16:19:56.075Z,2.00
2022-09-15T16:22:22.509Z,1.90
2022-09-15T16:24:48.985Z,2.10
2022-09-15T16:27:17.783Z,2.57
2022-09-15T16:29:45.344Z,2.00
2022-09-15T16:32:18.656Z,2.20
2022-09-15T16:34:45.498Z,2.60
2022-09-15T16:37:12.474Z,2.47
2022-09-15T16:39:39.044Z,2.70
2022-09-15T16:42:05.865Z,2.90
2022-09-15T16:44:32.747Z,2.70
2022-09-15T16:46:59.573Z,2.50
2022-09-15T16:49:26.156Z,2.50
2022-09-15T16:51:53.057Z,2.63
2022-09-15T16:54:23.116Z,2.57
2022-09-15T16:56:49.558Z,2.50
2022-09-15T16:59:16.277Z,2.70
2022-09-15T17:01:42.894Z,3.10
2022-09-15T17:04:13.922Z,2.50
2022-09-15T17:06:40.363Z,2.80
2022-09-15T17:09:06.942Z,2.93
2022-09-15T17:11:33.460Z,2.60
2022-09-15T17:14:00.526Z,3.30
2022-09-15T17:16:27.318Z,3.20
2022-09-15T17:18:53.809Z,3.00
2022-09-15T17:21:20.516Z,3.47
2022-09-15T17:23:49.204Z,3.30
2022-09-15T17:26:20.085Z,3.30
2022-09-15T17:28:47.089Z,3.37
2022-09-15T17:31:16.656Z,3.50
2022-09-15T17:33:44.096Z,3.20
2022-09-15T17:36:10.943Z,3.60
2022-09-15T17:38:37.372Z,3.33
2022-09-15T17:41:03.875Z,4.00
2022-09-15T17:43:31.793Z,3.80
2022-09-15T17:45:58.444Z,3.60
2022-09-15T17:48:25.417Z,3.53
2022-09-15T17:50:52.432Z,3.87
2022-09-15T17:53:24.172Z,3.40
2022-09-15T17:55:50.995Z,3.27
2022-09-15T17:58:18.337Z,4.00
2022-09-15T18:00:46.115Z,4.00
2022-09-15T18:03:30.952Z,3.90
2022-09-15T18:05:59.002Z,4.50
2022-09-15T18:08:26.291Z,4.87
2022-09-15T18:10:52.802Z,4.50
2022-09-15T18:13:21.646Z,3.80
2022-09-15T18:15:51.554Z,4.13
2022-09-15T18:18:24.155Z,4.90
2022-09-15T18:20:52.956Z,4.40
2022-09-15T18:23:24.252Z,4.80
2022-09-15T18:25:50.957Z,5.07
2022-09-15T18:28:18.218Z,4.23
2022-09-15T18:30:47.466Z,4.40
2022-09-15T18:33:22.229Z,4.63
2022-09-15T18:35:50.430Z,4.77
2022-09-15T18:38:17.576Z,4.53
2022-09-15T18:40:49.271Z,4.33
2022-09-15T18:43:16.639Z,3.93
2022-09-15T18:45:43.131Z,4.60
2022-09-15T18:48:12.912Z,5.33
2022-09-15T18:50:40.727Z,4.57
2022-09-15T18:53:07.446Z,4.60
2022-09-15T18:55:33.920Z,5.43
2022-09-15T18:58:01.247Z,4.97
2022-09-15T19:00:29.445Z,4.73
2022-09-15T19:03:00.568Z,4.37
2022-09-15T19:05:28.533Z,4.50
2022-09-15T19:07:55.373Z,4.40
2022-09-15T19:10:22.162Z,5.07
2022-09-15T19:12:48.662Z,4.57
2022-09-15T19:15:15.777Z,4.83
2022-09-15T19:17:42.903Z,5.00
2022-09-15T19:20:11.747Z,5.40
2022-09-15T19:22:38.398Z,4.63
2022-09-15T19:25:06.087Z,5.03
2022-09-15T19:27:32.738Z,4.87
2022-09-15T19:29:59.958Z,4.30
2022-09-15T19:32:27.045Z,4.47
2022-09-15T19:34:53.561Z,5.17
2022-09-15T19:37:21.447Z,5.17
2022-09-15T19:39:48.781Z,5.57
2022-09-15T19:44:47.901Z,5.10
2022-09-15T19:47:14.628Z,5.73
2022-09-15T19:49:41.096Z,5.63
2022-09-15T19:52:07.816Z,5.10
2022-09-15T19:54:34.721Z,8.73
2022-09-15T19:57:01.636Z,5.33
2022-09-15T19:59:31.371Z,5.03
2022-09-15T20:01:59.518Z,5.20
2022-09-15T20:04:26.454Z,5.47
2022-09-15T20:06:52.998Z,5.47
2022-09-15T20:09:19.444Z,5.60
2022-09-15T20:11:45.976Z,5.70
2022-09-15T20:14:12.468Z,6.90
2022-09-15T20:16:39.339Z,6.20
2022-09-15T20:19:06.120Z,5.90
2022-09-15T20:21:51.123Z,5.60
2022-09-15T20:24:19.595Z,4.63
2022-09-15T20:26:46.242Z,4.63
2022-09-15T20:29:13.208Z,5.13
2022-09-15T20:31:40.173Z,4.80
2022-09-15T20:34:06.667Z,4.70
2022-09-15T20:36:36.388Z,5.37
2022-09-15T20:39:04.936Z,5.17
2022-09-15T20:41:32.234Z,7.47
2022-09-15T20:43:59.081Z,5.77
2022-09-15T20:46:26.060Z,5.80
2022-09-15T20:48:52.790Z,5.87
2022-09-15T20:51:22.813Z,5.47
2022-09-15T20:53:51.830Z,5.57
2022-09-15T20:56:21.155Z,5.40
2022-09-15T20:58:48.056Z,5.17
2022-09-15T21:01:16.655Z,5.67
2022-09-15T21:03:44.485Z,5.63
2022-09-15T21:06:13.023Z,6.00
2022-09-15T21:08:39.915Z,5.50
2022-09-15T21:11:10.640Z,5.13
2022-09-15T21:13:38.690Z,5.67
2022-09-15T21:16:08.169Z,6.03
2022-09-15T21:18:39.186Z,6.20
2022-09-15T21:21:07.991Z,6.47
2022-09-15T21:23:42.693Z,5.80
2022-09-15T21:26:17.269Z,6.43
2022-09-15T21:28:44.952Z,6.57
2022-09-15T21:31:14.980Z,6.00
2022-09-15T21:33:42.256Z,7.47
2022-09-15T21:36:17.398Z,6.33
2022-09-15T21:38:44.346Z,6.57
2022-09-15T21:41:13.760Z,6.43
2022-09-15T21:43:41.961Z,6.47
2022-09-15T21:46:11.780Z,7.43
2022-09-15T21:48:38.612Z,7.90
2022-09-15T21:51:05.972Z,7.33
2022-09-15T21:53:33.875Z,7.60
2022-09-15T21:56:05.560Z,7.83
2022-09-15T21:58:37.930Z,7.60
2022-09-15T22:01:29.870Z,7.53
2022-09-15T22:03:59.163Z,7.30
2022-09-15T22:06:30.528Z,7.63
2022-09-15T22:08:58.772Z,7.17
2022-09-15T22:11:25.283Z,8.00
2022-09-15T22:13:51.787Z,7.83
2022-09-15T22:16:21.296Z,7.57
2022-09-15T22:18:47.914Z,7.60
2022-09-15T22:21:19.669Z,6.90
2022-09-15T22:23:47.798Z,7.40
2022-09-15T22:26:19.073Z,7.33
2022-09-15T22:28:45.827Z,7.27
2022-09-15T22:31:13.809Z,7.13
2022-09-15T22:33:43.117Z,7.90
2022-09-15T22:36:11.642Z,7.27
2022-09-15T22:38:38.710Z,7.47
2022-09-15T22:41:08.950Z,6.63
2022-09-15T22:43:36.299Z,6.97
2022-09-15T22:46:04.873Z,6.23
2022-09-15T22:48:32.299Z,6.60
2022-09-15T22:50:59.249Z,6.17
2022-09-15T22:53:25.927Z,6.07
2022-09-15T22:55:53.468Z,6.27
2022-09-15T22:58:19.930Z,6.03
2022-09-15T23:00:46.493Z,5.50
2022-09-15T23:03:13.333Z,5.47
2022-09-15T23:05:39.823Z,5.77
2022-09-15T23:08:06.294Z,6.17
2022-09-15T23:10:33.240Z,6.37
2022-09-15T23:12:59.870Z,6.73
2022-09-15T23:15:26.518Z,7.20
2022-09-15T23:17:53.082Z,6.17
2022-09-15T23:20:19.484Z,7.03
2022-09-15T23:22:45.952Z,7.23
2022-09-15T23:25:12.523Z,8.03
2022-09-15T23:27:38.996Z,7.60
2022-09-15T23:30:05.745Z,8.37
2022-09-15T23:32:32.357Z,7.80
2022-09-15T23:34:58.775Z,7.90
2022-09-15T23:37:25.273Z,7.40
2022-09-15T23:39:52.340Z,6.97
2022-09-15T23:42:19.198Z,6.47
2022-09-15T23:44:45.784Z,6.53
2022-09-15T23:47:12.209Z,6.63
2022-09-15T23:49:38.630Z,6.70
2022-09-15T23:52:05.040Z,6.47
2022-09-15T23:54:32.316Z,6.43
2022-09-15T23:56:58.761Z,6.63
2022-09-15T23:59:25.266Z,6.53
